Time;durP1;ratioP1;P1;durP2;ratioP2;P2;SDS_P1;SDS_P2;PMS_P1;PMS_P2;Temp;Humidity;BMP_temperature;BMP_pressure;BME280_temperature;BME280_humidity;BME280_pressure;Samples;Min_cycle;Max_cycle;Signal;HPM_P1;HPM_P2
2024/01/11 00:02:01;;;;;;;2.00;1.90;;;-2.40;99.90;;;;;;4987720;28;20113;-88
2024/01/11 00:04:26;;;;;;;1.88;1.77;;;-2.40;99.90;;;;;;4972035;28;20056;-88
2024/01/11 00:06:52;;;;;;;1.90;1.80;;;-2.40;99.90;;;;;;5003046;28;20049;-88
2024/01/11 00:09:18;;;;;;;2.13;2.03;;;-2.40;99.90;;;;;;4983284;28;20126;-87
2024/01/11 00:11:43;;;;;;;1.92;1.83;;;-2.30;99.90;;;;;;4985732;28;20723;-87
2024/01/11 00:14:09;;;;;;;2.05;1.95;;;-2.40;99.90;;;;;;4970988;28;20483;-87
2024/01/11 00:16:35;;;;;;;2.00;1.90;;;-2.40;99.90;;;;;;4989309;28;20050;-87
2024/01/11 00:19:00;;;;;;;2.08;1.98;;;-2.40;99.90;;;;;;5004943;28;20547;-86
2024/01/11 00:21:26;;;;;;;3.40;3.20;;;-2.40;99.90;;;;;;4985120;28;20111;-87
2024/01/11 00:23:52;;;;;;;1.90;1.80;;;-2.40;99.90;;;;;;4988543;28;20172;-85
2024/01/11 00:26:17;;;;;;;1.92;1.83;;;-2.40;99.90;;;;;;4987636;28;20124;-87
2024/01/11 00:28:43;;;;;;;2.10;2.00;;;-2.40;99.90;;;;;;4987103;28;20046;-87
2024/01/11 00:31:10;;;;;;;1.92;1.83;;;-2.40;99.90;;;;;;4987433;28;20240;-86
2024/01/11 00:33:35;;;;;;;2.20;2.10;;;-2.50;99.90;;;;;;4986050;28;20053;-86
2024/01/11 00:36:01;;;;;;;2.38;2.28;;;-2.40;99.90;;;;;;4971421;28;20049;-86
2024/01/11 00:38:27;;;;;;;2.10;2.00;;;-2.40;99.90;;;;;;4988716;28;20045;-86
2024/01/11 00:40:53;;;;;;;2.10;2.00;;;-2.40;99.90;;;;;;4986287;28;20090;-86
2024/01/11 00:43:18;;;;;;;2.20;2.10;;;-2.50;99.90;;;;;;4985221;28;20042;-86
2024/01/11 00:45:45;;;;;;;2.05;1.95;;;-2.50;99.90;;;;;;4988011;28;20052;-86
2024/01/11 00:48:12;;;;;;;2.00;1.90;;;-2.50;99.90;;;;;;4982207;28;20053;-86
2024/01/11 00:50:37;;;;;;;2.00;1.90;;;-2.50;99.90;;;;;;4985500;28;20141;-86
2024/01/11 00:53:03;;;;;;;2.03;1.92;;;-2.50;1.00;;;;;;4989212;28;20045;-86
2024/01/11 00:55:29;;;;;;;2.00;1.90;;;-2.50;99.90;;;;;;4988609;28;20780;-85
2024/01/11 00:57:55;;;;;;;1.90;1.80;;;-2.60;99.90;;;;;;4988018;28;20095;-86
2024/01/11 01:00:21;;;;;;;2.00;1.90;;;-2.60;99.90;;;;;;5002424;28;20499;-86
2024/01/11 01:02:46;;;;;;;1.90;1.80;;;-2.60;99.90;;;;;;4987521;28;20046;-85
2024/01/11 01:05:12;;;;;;;2.00;1.90;;;-2.50;1.00;;;;;;4982917;28;20046;-86
2024/01/11 01:07:38;;;;;;;1.98;1.88;;;-2.60;99.90;;;;;;4983948;28;20065;-85
2024/01/11 01:10:04;;;;;;;1.90;1.80;;;-2.70;1.00;;;;;;4987153;28;20499;-85
2024/01/11 01:12:29;;;;;;;1.88;1.77;;;-2.70;1.00;;;;;;4986802;28;20057;-85
2024/01/11 01:14:55;;;;;;;1.90;1.80;;;-2.60;1.00;;;;;;4988569;28;20054;-85
2024/01/11 01:17:22;;;;;;;1.95;1.85;;;-2.70;1.00;;;;;;4986885;28;20392;-85
2024/01/11 01:19:48;;;;;;;1.98;1.88;;;-2.70;1.00;;;;;;4984923;28;20049;-85
2024/01/11 01:22:13;;;;;;;1.90;1.80;;;-2.70;1.00;;;;;;4984994;28;20053;-85
2024/01/11 01:24:39;;;;;;;2.00;1.90;;;-2.70;1.00;;;;;;4987386;28;20072;-84
2024/01/11 01:27:05;;;;;;;1.92;1.83;;;-2.70;1.00;;;;;;4988812;28;20072;-84
2024/01/11 01:29:30;;;;;;;2.05;1.95;;;-2.60;1.00;;;;;;4998880;28;20069;-84
2024/01/11 01:31:56;;;;;;;1.90;1.80;;;-2.70;1.00;;;;;;5005800;28;20412;-84
2024/01/11 01:34:22;;;;;;;1.90;1.80;;;-2.70;1.00;;;;;;5003298;28;20131;-84
2024/01/11 01:36:47;;;;;;;1.90;1.80;;;-2.70;1.00;;;;;;5004668;28;20513;-84
2024/01/11 01:39:13;;;;;;;1.80;1.70;;;-2.70;1.00;;;;;;5002529;28;20042;-84
2024/01/11 01:41:39;;;;;;;1.90;1.80;;;-2.70;1.00;;;;;;4983697;28;20042;-84
2024/01/11 01:44:04;;;;;;;1.90;1.80;;;-2.70;1.00;;;;;;4984936;28;20042;-83
2024/01/11 01:46:30;;;;;;;2.00;1.90;;;-2.80;1.00;;;;;;5000735;28;20054;-83
2024/01/11 01:48:57;;;;;;;1.90;1.80;;;-2.70;1.00;;;;;;4985236;28;20058;-84
2024/01/11 01:51:28;;;;;;;2.00;1.90;;;-2.70;1.00;;;;;;4986267;28;20058;-84
2024/01/11 01:53:55;;;;;;;1.90;1.80;;;-2.80;1.00;;;;;;4997805;28;20058;-83
2024/01/11 01:56:21;;;;;;;2.00;1.90;;;-2.70;1.00;;;;;;4988212;28;20049;-83
2024/01/11 01:58:50;;;;;;;4.10;3.88;;;-2.80;1.00;;;;;;5000053;28;20049;-83
2024/01/11 02:01:16;;;;;;;2.00;1.90;;;-2.80;1.00;;;;;;4979066;28;20523;-82
2024/01/11 02:03:45;;;;;;;2.10;2.00;;;-2.90;1.00;;;;;;4982231;28;20038;-83
2024/01/11 02:06:10;;;;;;;2.00;1.90;;;-2.80;1.00;;;;;;4984732;28;20056;-82
2024/01/11 02:08:37;;;;;;;2.00;1.90;;;-2.90;1.00;;;;;;4981840;28;20054;-82
2024/01/11 02:11:03;;;;;;;1.90;1.80;;;-2.90;1.00;;;;;;4984176;28;20053;-82
2024/01/11 02:13:29;;;;;;;1.80;1.70;;;-2.90;12.80;;;;;;4982746;28;20430;-82
2024/01/11 02:15:55;;;;;;;1.95;1.85;;;-2.90;31.70;;;;;;4984403;28;20042;-82
2024/01/11 02:18:20;;;;;;;2.00;1.90;;;-2.80;57.20;;;;;;4984283;28;20046;-82
2024/01/11 02:20:46;;;;;;;2.17;2.08;;;-2.80;77.50;;;;;;5001586;28;20046;-82
2024/01/11 02:23:17;;;;;;;2.00;1.90;;;-2.80;85.10;;;;;;4999667;28;20073;-82
2024/01/11 02:25:42;;;;;;;2.00;1.90;;;-2.90;94.00;;;;;;4981798;28;20084;-82
2024/01/11 02:28:08;;;;;;;1.92;1.83;;;-2.90;97.80;;;;;;4984780;28;20085;-81
2024/01/11 02:30:34;;;;;;;2.00;1.90;;;-3.00;99.90;;;;;;5001338;28;20068;-82
2024/01/11 02:33:01;;;;;;;2.10;2.00;;;-3.00;99.90;;;;;;4981179;28;20050;-81
2024/01/11 02:35:28;;;;;;;2.25;2.15;;;-3.00;99.90;;;;;;5003759;28;20052;-81
2024/01/11 02:37:54;;;;;;;2.20;2.10;;;-2.90;99.90;;;;;;5003111;28;20061;-82
2024/01/11 02:40:20;;;;;;;2.22;2.13;;;-2.80;99.90;;;;;;4982898;28;20049;-81
2024/01/11 02:42:45;;;;;;;2.20;2.10;;;-3.00;99.90;;;;;;4983458;28;20054;-81
2024/01/11 02:45:12;;;;;;;2.00;1.90;;;-2.90;99.90;;;;;;5001528;28;20058;-81
2024/01/11 02:47:38;;;;;;;2.10;2.00;;;-3.00;99.90;;;;;;4985940;28;20137;-81
2024/01/11 02:50:08;;;;;;;2.25;2.15;;;-2.80;99.90;;;;;;4982196;28;20050;-81
2024/01/11 02:52:34;;;;;;;2.00;1.90;;;-2.80;99.90;;;;;;4998953;28;20046;-81
2024/01/11 02:54:59;;;;;;;2.10;2.00;;;-2.80;99.90;;;;;;4999696;28;20046;-81
2024/01/11 02:57:25;;;;;;;2.05;1.95;;;-2.90;99.90;;;;;;5000921;28;20109;-81
2024/01/11 02:59:51;;;;;;;2.00;1.90;;;-2.90;99.90;;;;;;4985128;28;20056;-81
2024/01/11 03:02:17;;;;;;;2.08;1.98;;;-2.80;99.90;;;;;;4997908;28;20585;-81
2024/01/11 03:04:43;;;;;;;2.13;2.03;;;-2.80;99.90;;;;;;4999642;28;20039;-81
2024/01/11 03:07:09;;;;;;;1.98;1.88;;;-3.00;99.90;;;;;;4998450;28;20075;-81
2024/01/11 03:09:34;;;;;;;2.08;1.98;;;-2.90;99.90;;;;;;4986265;28;20153;-81
2024/01/11 03:12:00;;;;;;;2.10;2.00;;;-2.90;99.90;;;;;;5001771;28;20042;-80
2024/01/11 03:14:26;;;;;;;2.00;1.90;;;-2.90;99.90;;;;;;4996857;28;20052;-80
2024/01/11 03:16:52;;;;;;;2.03;1.92;;;-2.90;99.90;;;;;;4994699;28;20121;-80
2024/01/11 03:19:17;;;;;;;2.03;1.92;;;-3.00;99.90;;;;;;5002078;28;20451;-80
2024/01/11 03:21:44;;;;;;;2.10;2.00;;;-2.90;99.90;;;;;;4998895;28;20042;-80
2024/01/11 03:24:09;;;;;;;2.00;1.90;;;-2.90;99.90;;;;;;4986656;28;20057;-80
2024/01/11 03:26:35;;;;;;;2.13;2.03;;;-2.90;99.90;;;;;;4985675;28;20048;-80
2024/01/11 03:29:01;;;;;;;2.10;2.00;;;-2.90;99.90;;;;;;4986773;28;20045;-80
2024/01/11 03:31:26;;;;;;;2.00;1.90;;;-2.80;99.90;;;;;;5004163;28;20446;-79
2024/01/11 03:33:52;;;;;;;2.10;2.00;;;-2.90;99.90;;;;;;5005520;28;20053;-79
2024/01/11 03:36:18;;;;;;;2.28;2.17;;;-2.90;99.90;;;;;;4986872;28;20124;-79
2024/01/11 03:38:43;;;;;;;2.20;2.10;;;-2.80;99.90;;;;;;5002352;28;20511;-79
2024/01/11 03:41:09;;;;;;;2.10;2.00;;;-2.90;99.90;;;;;;5003158;28;20045;-79
2024/01/11 03:43:36;;;;;;;2.15;2.05;;;-2.90;99.90;;;;;;5003120;28;20049;-79
2024/01/11 03:46:02;;;;;;;2.10;2.00;;;-2.80;99.90;;;;;;5005902;28;20065;-79
2024/01/11 03:48:28;;;;;;;2.08;1.98;;;-2.80;99.90;;;;;;5002688;28;20038;-79
2024/01/11 03:50:54;;;;;;;2.03;1.92;;;-2.80;99.90;;;;;;5004934;28;20049;-79
2024/01/11 03:53:20;;;;;;;2.08;1.98;;;-2.80;99.90;;;;;;5000558;28;20070;-79
2024/01/11 03:55:45;;;;;;;2.10;2.00;;;-2.80;99.90;;;;;;5002197;28;20057;-79
2024/01/11 03:58:11;;;;;;;1.90;1.80;;;-2.70;99.90;;;;;;4985713;28;20050;-79
2024/01/11 04:00:37;;;;;;;2.00;1.90;;;-2.90;99.90;;;;;;5002916;28;20034;-79
2024/01/11 04:03:03;;;;;;;2.20;2.10;;;-2.80;99.90;;;;;;4980755;28;20050;-79
2024/01/11 04:05:28;;;;;;;2.00;1.90;;;-2.80;99.90;;;;;;5003464;28;20046;-79
2024/01/11 04:07:54;;;;;;;2.00;1.90;;;-2.90;99.90;;;;;;5004021;28;20042;-79
2024/01/11 04:10:20;;;;;;;2.10;2.00;;;-2.80;99.90;;;;;;5004352;28;20043;-79
2024/01/11 04:12:46;;;;;;;2.40;2.30;;;-2.90;99.90;;;;;;5004021;28;20854;-78
2024/01/11 04:15:13;;;;;;;2.20;2.10;;;-2.90;99.90;;;;;;5002925;28;20037;-79
2024/01/11 04:17:39;;;;;;;2.30;2.20;;;-2.90;99.90;;;;;;4983799;28;20152;-79
2024/01/11 04:20:06;;;;;;;2.10;2.00;;;-2.90;99.90;;;;;;4981978;28;20038;-79
2024/01/11 04:22:32;;;;;;;2.00;1.90;;;-2.80;99.90;;;;;;4979822;28;20048;-79
2024/01/11 04:24:57;;;;;;;2.00;1.90;;;-2.80;99.90;;;;;;5001534;28;20049;-79
2024/01/11 04:27:23;;;;;;;2.20;2.10;;;-2.80;99.90;;;;;;5004304;28;20120;-79
2024/01/11 04:29:49;;;;;;;1.90;1.80;;;-2.70;99.90;;;;;;5001862;28;20045;-79
2024/01/11 04:32:15;;;;;;;2.00;1.90;;;-2.70;99.90;;;;;;5001621;28;20042;-79
2024/01/11 04:34:40;;;;;;;2.05;1.95;;;-2.80;99.90;;;;;;5003289;28;20037;-79
2024/01/11 04:37:07;;;;;;;1.90;1.80;;;-2.70;99.90;;;;;;5002234;28;20777;-79
2024/01/11 04:39:32;;;;;;;2.00;1.90;;;-2.80;99.90;;;;;;5002944;28;20095;-79
2024/01/11 04:42:00;;;;;;;2.00;1.90;;;-2.80;99.90;;;;;;5001976;28;20081;-79
2024/01/11 04:44:26;;;;;;;1.92;1.83;;;-2.80;99.90;;;;;;5001793;28;20045;-80
2024/01/11 04:46:52;;;;;;;2.00;1.90;;;-2.80;99.90;;;;;;5001529;28;20050;-80
2024/01/11 04:49:17;;;;;;;2.00;1.90;;;-2.80;99.90;;;;;;4998745;28;20133;-79
2024/01/11 04:51:43;;;;;;;2.00;1.90;;;-2.90;99.90;;;;;;5002010;28;20050;-80
2024/01/11 04:54:09;;;;;;;2.00;1.90;;;-2.90;99.90;;;;;;5001622;28;20050;-80
2024/01/11 04:56:34;;;;;;;1.95;1.85;;;-3.00;99.90;;;;;;4983434;28;20058;-80
2024/01/11 04:59:00;;;;;;;1.90;1.80;;;-3.20;99.90;;;;;;5003749;28;20087;-80
2024/01/11 05:01:26;;;;;;;2.05;1.95;;;-3.10;99.90;;;;;;4983557;28;20193;-80
2024/01/11 05:03:52;;;;;;;2.10;2.00;;;-3.00;99.90;;;;;;4969384;28;20515;-80
2024/01/11 05:06:18;;;;;;;2.00;1.90;;;-3.10;99.90;;;;;;5002241;28;20081;-80
2024/01/11 05:08:47;;;;;;;2.00;1.90;;;-3.20;99.90;;;;;;4981506;28;20077;-80
2024/01/11 05:11:17;;;;;;;2.10;2.00;;;-3.10;99.90;;;;;;4998172;28;20076;-80
2024/01/11 05:13:45;;;;;;;2.30;2.20;;;-3.10;99.90;;;;;;4981719;28;20148;-80
2024/01/11 05:16:25;;;;;;;2.30;2.20;;;-3.10;99.90;;;;;;4984564;28;20058;-80
2024/01/11 05:18:55;;;;;;;2.20;2.10;;;-3.20;99.90;;;;;;4998306;28;20050;-80
2024/01/11 05:21:21;;;;;;;2.20;2.10;;;-3.10;99.90;;;;;;4984733;28;20057;-81
2024/01/11 05:23:47;;;;;;;2.35;2.25;;;-3.20;99.90;;;;;;4984196;28;20056;-80
2024/01/11 05:26:14;;;;;;;2.13;2.03;;;-3.10;99.90;;;;;;5000221;28;20049;-80
2024/01/11 05:28:40;;;;;;;2.20;2.10;;;-3.10;99.90;;;;;;4978751;28;22412;-80
2024/01/11 05:31:11;;;;;;;2.20;2.10;;;-3.10;99.90;;;;;;5001349;28;20059;-81
2024/01/11 05:33:38;;;;;;;2.33;2.22;;;-3.20;99.90;;;;;;4982954;28;20060;-80
2024/01/11 05:36:04;;;;;;;2.20;2.10;;;-3.20;99.90;;;;;;4983533;28;20054;-80
2024/01/11 05:38:30;;;;;;;2.30;2.20;;;-3.10;99.90;;;;;;5000472;28;20045;-81
2024/01/11 05:40:56;;;;;;;2.58;2.38;;;-3.10;99.90;;;;;;4985191;28;20057;-81
2024/01/11 05:43:23;;;;;;;3.40;3.20;;;-3.00;99.90;;;;;;5002708;28;20057;-81
2024/01/11 05:45:49;;;;;;;2.10;2.00;;;-3.10;99.90;;;;;;5001363;28;20099;-81
2024/01/11 05:48:15;;;;;;;2.10;2.00;;;-3.00;99.90;;;;;;4983808;28;20061;-81
2024/01/11 05:50:41;;;;;;;2.53;2.42;;;-3.10;99.90;;;;;;5002046;28;20049;-80
2024/01/11 05:53:07;;;;;;;2.20;2.10;;;-3.20;99.90;;;;;;4977761;28;20128;-81
2024/01/11 05:55:33;;;;;;;2.20;2.10;;;-3.30;99.90;;;;;;4980659;28;20530;-81
2024/01/11 05:57:59;;;;;;;2.30;2.20;;;-3.30;99.90;;;;;;4983278;28;20168;-81
2024/01/11 06:00:25;;;;;;;2.20;2.10;;;-3.30;99.90;;;;;;4984873;28;20764;-81
2024/01/11 06:02:50;;;;;;;2.20;2.10;;;-3.20;99.90;;;;;;4980534;28;20671;-81
2024/01/11 06:05:16;;;;;;;2.00;1.90;;;-3.10;99.90;;;;;;5000178;28;20107;-81
2024/01/11 06:07:42;;;;;;;2.35;2.25;;;-3.10;99.90;;;;;;4983695;28;20072;-82
2024/01/11 06:10:08;;;;;;;2.30;2.20;;;-3.20;99.90;;;;;;4981260;28;20053;-81
2024/01/11 06:12:35;;;;;;;2.10;2.00;;;-3.20;99.90;;;;;;4980350;28;20108;-82
2024/01/11 06:15:02;;;;;;;2.03;1.92;;;-3.30;99.90;;;;;;4982700;28;20046;-81
2024/01/11 06:17:28;;;;;;;2.10;2.00;;;-3.30;99.90;;;;;;4983153;28;20085;-81
2024/01/11 06:19:55;;;;;;;2.00;1.90;;;-3.20;99.90;;;;;;4986130;28;20050;-82
2024/01/11 06:22:21;;;;;;;2.00;1.90;;;-3.00;99.90;;;;;;4979738;28;20046;-82
2024/01/11 06:24:46;;;;;;;2.13;2.03;;;-2.90;99.90;;;;;;4981236;28;20117;-82
2024/01/11 06:27:12;;;;;;;2.10;2.00;;;-2.90;99.90;;;;;;4981898;28;20053;-82
2024/01/11 06:29:38;;;;;;;2.00;1.90;;;-2.80;99.90;;;;;;4981160;28;20530;-82
2024/01/11 06:32:04;;;;;;;2.00;1.90;;;-2.70;99.90;;;;;;4984504;28;20041;-82
2024/01/11 06:34:29;;;;;;;2.10;2.00;;;-2.70;99.90;;;;;;5000703;28;20069;-82
2024/01/11 06:36:55;;;;;;;2.10;2.00;;;-2.60;99.90;;;;;;4969152;28;20046;-82
2024/01/11 06:39:21;;;;;;;1.90;1.80;;;-2.30;99.90;;;;;;4983386;28;20057;-82
2024/01/11 06:41:47;;;;;;;2.05;1.95;;;-2.30;99.90;;;;;;4969278;28;20554;-82
2024/01/11 06:44:12;;;;;;;1.90;1.80;;;-2.20;99.90;;;;;;4983936;28;20046;-82
2024/01/11 06:46:41;;;;;;;1.90;1.80;;;-2.20;99.90;;;;;;4979538;28;20042;-82
2024/01/11 06:49:10;;;;;;;1.83;1.73;;;-2.10;99.90;;;;;;4986162;28;20049;-82
2024/01/11 06:51:36;;;;;;;2.00;1.90;;;-1.90;99.90;;;;;;4986180;28;20115;-82
2024/01/11 06:54:01;;;;;;;2.00;1.90;;;-2.00;99.90;;;;;;4987800;28;20103;-82
2024/01/11 06:56:27;;;;;;;2.00;1.90;;;-1.80;99.90;;;;;;4989611;28;20707;-82
2024/01/11 06:58:54;;;;;;;1.90;1.80;;;-1.80;99.90;;;;;;4988833;28;20069;-82
2024/01/11 07:01:21;;;;;;;1.90;1.80;;;-1.70;99.90;;;;;;4987295;28;20120;-82
2024/01/11 07:03:47;;;;;;;1.83;1.73;;;-1.60;99.90;;;;;;5006325;28;20046;-82
2024/01/11 07:06:12;;;;;;;1.90;1.80;;;-1.60;99.90;;;;;;4988119;28;20772;-82
2024/01/11 07:08:38;;;;;;;1.80;1.70;;;-1.40;99.90;;;;;;4986771;28;20081;-82
2024/01/11 07:11:04;;;;;;;1.90;1.80;;;-1.50;99.90;;;;;;5004732;28;20057;-83
2024/01/11 07:13:33;;;;;;;1.90;1.80;;;-1.30;99.90;;;;;;4984959;28;20054;-82
2024/01/11 07:16:00;;;;;;;1.83;1.73;;;-1.30;99.90;;;;;;4987335;28;20277;-82
2024/01/11 07:18:26;;;;;;;1.90;1.80;;;-1.20;99.90;;;;;;5006300;28;20085;-82
2024/01/11 07:20:52;;;;;;;1.85;1.75;;;-1.10;99.90;;;;;;5006681;28;20403;-82
2024/01/11 07:23:18;;;;;;;1.90;1.80;;;-1.10;99.90;;;;;;4972297;28;20049;-82
2024/01/11 07:25:44;;;;;;;1.90;1.80;;;-1.00;99.90;;;;;;4991426;28;20049;-82
2024/01/11 07:28:10;;;;;;;1.80;1.70;;;-1.00;99.90;;;;;;5008619;28;20050;-82
2024/01/11 07:30:35;;;;;;;1.80;1.70;;;-0.80;99.90;;;;;;5006057;28;20050;-81
2024/01/11 07:33:01;;;;;;;1.80;1.70;;;-0.90;99.90;;;;;;4988552;28;20133;-83
2024/01/11 07:35:27;;;;;;;1.90;1.80;;;-0.90;99.90;;;;;;4988854;28;20089;-83
2024/01/11 07:37:53;;;;;;;1.90;1.80;;;-0.70;99.90;;;;;;4989860;28;20082;-83
2024/01/11 07:40:19;;;;;;;1.85;1.75;;;-0.90;99.90;;;;;;4988904;28;20054;-83
2024/01/11 07:42:46;;;;;;;1.90;1.80;;;-0.70;99.90;;;;;;4987671;28;20554;-83
2024/01/11 07:45:12;;;;;;;1.95;1.85;;;-0.90;99.90;;;;;;4988939;28;20064;-83
2024/01/11 07:47:40;;;;;;;1.85;1.75;;;-0.80;99.90;;;;;;4990039;28;20046;-82
2024/01/11 07:50:07;;;;;;;1.90;1.80;;;-0.70;99.90;;;;;;4991572;28;20046;-82
2024/01/11 07:52:33;;;;;;;2.00;1.90;;;-0.70;99.90;;;;;;4989352;28;20157;-82
2024/01/11 07:55:06;;;;;;;1.95;1.85;;;-0.70;99.90;;;;;;5007296;28;20049;-82
2024/01/11 07:57:35;;;;;;;2.10;2.00;;;-0.70;99.90;;;;;;4990419;28;20050;-83
2024/01/11 08:00:01;;;;;;;2.00;1.90;;;-0.60;99.90;;;;;;4987146;28;20125;-82
2024/01/11 08:02:27;;;;;;;1.90;1.80;;;-0.50;99.90;;;;;;4991327;28;20050;-82
2024/01/11 08:04:53;;;;;;;2.00;1.90;;;-0.50;99.90;;;;;;4989806;28;20046;-82
2024/01/11 08:07:18;;;;;;;2.10;2.00;;;-0.40;99.90;;;;;;5002754;28;20046;-83
2024/01/11 08:09:47;;;;;;;2.00;1.90;;;-0.30;99.90;;;;;;4990497;28;20415;-84
2024/01/11 08:12:16;;;;;;;1.85;1.75;;;-0.30;99.90;;;;;;4974274;28;20045;-82
2024/01/11 08:14:42;;;;;;;2.00;1.90;;;-0.30;99.90;;;;;;4991412;28;20057;-82
2024/01/11 08:17:08;;;;;;;2.00;1.90;;;-0.50;99.90;;;;;;4992309;28;20057;-83
2024/01/11 08:19:35;;;;;;;1.90;1.80;;;-0.30;99.90;;;;;;4990348;28;20137;-81
2024/01/11 08:22:01;;;;;;;1.90;1.80;;;-0.20;99.90;;;;;;4991545;28;20077;-83
2024/01/11 08:24:26;;;;;;;1.83;1.73;;;-0.30;99.90;;;;;;4988269;28;20088;-82
2024/01/11 08:26:52;;;;;;;2.10;2.00;;;-0.10;99.90;;;;;;4991246;28;20046;-82
2024/01/11 08:29:22;;;;;;;1.92;1.83;;;-0.20;99.90;;;;;;4985779;28;20112;-83
2024/01/11 08:31:48;;;;;;;2.03;1.92;;;-0.10;99.90;;;;;;4989160;28;20542;-86
2024/01/11 08:34:13;;;;;;;1.90;1.80;;;-0.20;99.90;;;;;;4990123;28;20079;-82
2024/01/11 08:36:39;;;;;;;1.95;1.85;;;0.10;99.90;;;;;;5005406;28;20077;-84
2024/01/11 08:39:05;;;;;;;1.80;1.70;;;0.00;99.90;;;;;;4986528;28;20116;-82
2024/01/11 08:41:32;;;;;;;1.83;1.73;;;0.30;99.90;;;;;;4989886;28;20058;-82
2024/01/11 08:43:58;;;;;;;1.90;1.80;;;0.20;99.90;;;;;;5006060;28;20038;-82
2024/01/11 08:46:25;;;;;;;1.92;1.83;;;0.30;99.90;;;;;;4987478;28;20049;-81
2024/01/11 08:48:51;;;;;;;1.80;1.70;;;0.30;99.90;;;;;;5003227;28;20100;-82
2024/01/11 08:51:17;;;;;;;1.85;1.75;;;0.40;99.90;;;;;;5003841;28;20538;-82
2024/01/11 08:53:44;;;;;;;1.80;1.70;;;0.40;99.90;;;;;;5005587;28;20049;-81
2024/01/11 08:56:10;;;;;;;1.88;1.77;;;0.40;99.90;;;;;;5002658;28;20042;-82
2024/01/11 08:58:36;;;;;;;2.00;1.90;;;0.40;99.90;;;;;;4989742;28;20098;-82
2024/01/11 09:01:02;;;;;;;2.00;1.90;;;0.40;99.90;;;;;;5004798;28;20440;-82
2024/01/11 09:03:28;;;;;;;2.08;1.98;;;0.60;99.90;;;;;;4997297;28;20781;-82
2024/01/11 09:05:56;;;;;;;2.15;2.05;;;0.60;99.90;;;;;;4986939;28;20041;-81
2024/01/11 09:08:23;;;;;;;2.10;2.00;;;0.50;99.90;;;;;;5006811;28;20057;-82
2024/01/11 09:10:49;;;;;;;2.30;2.20;;;0.70;99.90;;;;;;4988683;28;20555;-81
2024/01/11 09:13:17;;;;;;;2.28;2.17;;;0.50;99.90;;;;;;5002427;28;20038;-84
2024/01/11 09:15:43;;;;;;;2.30;2.20;;;0.70;99.90;;;;;;4991722;28;20581;-82
2024/01/11 09:18:10;;;;;;;2.40;2.30;;;0.80;99.90;;;;;;4982527;28;20054;-82
2024/01/11 09:20:36;;;;;;;2.40;2.30;;;0.60;99.90;;;;;;4990210;28;20427;-83
2024/01/11 09:23:03;;;;;;;2.45;2.35;;;0.70;99.90;;;;;;5008447;28;20041;-81
2024/01/11 09:25:32;;;;;;;2.40;2.30;;;0.90;99.90;;;;;;4990227;28;20731;-82
2024/01/11 09:27:57;;;;;;;2.30;2.20;;;0.80;99.90;;;;;;5005496;28;20123;-82
2024/01/11 09:30:23;;;;;;;2.35;2.25;;;0.80;99.90;;;;;;5002622;28;20046;-82
2024/01/11 09:32:49;;;;;;;2.22;2.13;;;0.90;99.90;;;;;;4990520;28;20122;-81
2024/01/11 09:35:14;;;;;;;2.10;2.00;;;1.00;99.90;;;;;;5005740;28;20731;-82
2024/01/11 09:37:40;;;;;;;2.15;2.05;;;0.90;99.90;;;;;;4988481;28;20050;-81
2024/01/11 09:40:10;;;;;;;2.25;2.15;;;1.10;99.90;;;;;;5004770;28;20045;-81
2024/01/11 09:42:37;;;;;;;2.20;2.10;;;1.00;99.90;;;;;;4987835;28;20076;-81
2024/01/11 09:45:10;;;;;;;2.45;2.35;;;1.20;99.90;;;;;;4984718;28;20116;-81
2024/01/11 09:47:36;;;;;;;2.22;2.13;;;1.20;99.90;;;;;;5003775;28;20132;-78
2024/01/11 09:50:06;;;;;;;6.55;6.20;;;1.20;99.90;;;;;;5004747;28;20038;-79
2024/01/11 09:52:32;;;;;;;2.20;2.10;;;1.30;99.90;;;;;;5007345;28;20053;-82
2024/01/11 09:54:59;;;;;;;2.38;2.28;;;1.40;99.90;;;;;;5008703;28;20041;-82
2024/01/11 09:57:30;;;;;;;2.05;1.95;;;1.40;99.90;;;;;;4989471;28;20054;-82
2024/01/11 09:59:57;;;;;;;2.03;1.92;;;1.60;99.90;;;;;;4992599;28;20056;-81
2024/01/11 10:02:26;;;;;;;2.00;1.90;;;1.60;99.90;;;;;;4988237;28;20522;-82
2024/01/11 10:04:52;;;;;;;1.80;1.70;;;1.60;99.90;;;;;;4990977;28;20403;-82
2024/01/11 10:07:23;;;;;;;1.90;1.80;;;1.70;99.90;;;;;;4990050;28;21506;-82
2024/01/11 10:09:49;;;;;;;1.98;1.88;;;1.80;99.90;;;;;;4991186;28;20054;-82
2024/01/11 10:12:17;;;;;;;1.85;1.75;;;1.80;99.90;;;;;;4991283;28;20054;-82
2024/01/11 10:14:42;;;;;;;1.83;1.73;;;1.90;99.90;;;;;;4989119;28;20533;-83
2024/01/11 10:17:08;;;;;;;1.80;1.70;;;1.90;99.90;;;;;;4984330;28;20050;-82
2024/01/11 10:19:34;;;;;;;1.80;1.70;;;2.20;99.90;;;;;;4990858;28;20096;-82
2024/01/11 10:22:00;;;;;;;1.80;1.70;;;2.00;99.90;;;;;;5007595;28;20061;-82
2024/01/11 10:24:26;;;;;;;1.70;1.60;;;2.30;99.90;;;;;;4991337;28;20113;-83
2024/01/11 10:26:59;;;;;;;1.67;1.58;;;2.40;99.90;;;;;;5007588;28;20462;-82
2024/01/11 10:29:32;;;;;;;1.70;1.60;;;2.30;99.90;;;;;;5007150;28;20053;-82
2024/01/11 10:31:58;;;;;;;1.63;1.52;;;2.40;99.90;;;;;;4990221;28;20046;-81
2024/01/11 10:34:24;;;;;;;1.60;1.50;;;2.30;99.90;;;;;;5009593;28;20049;-81
2024/01/11 10:36:53;;;;;;;1.42;1.40;;;2.50;99.90;;;;;;4989325;28;20049;-82
2024/01/11 10:39:25;;;;;;;1.60;1.50;;;2.60;99.90;;;;;;5007595;28;20113;-82
2024/01/11 10:42:07;;;;;;;1.60;1.50;;;2.70;99.90;;;;;;4989582;28;20132;-81
2024/01/11 10:44:38;;;;;;;1.55;1.45;;;2.50;99.90;;;;;;4990919;28;20136;-82
2024/01/11 10:47:07;;;;;;;1.63;1.52;;;2.60;99.90;;;;;;4969517;28;20052;-81
2024/01/11 10:49:33;;;;;;;1.55;1.45;;;2.70;99.90;;;;;;4984303;28;21388;-82
2024/01/11 10:52:02;;;;;;;1.55;1.45;;;2.80;99.90;;;;;;4989047;28;20457;-82
2024/01/11 10:54:30;;;;;;;1.50;1.40;;;2.70;99.90;;;;;;4990370;28;20064;-82
2024/01/11 10:56:59;;;;;;;1.58;1.48;;;2.90;99.90;;;;;;4990235;28;20407;-81
2024/01/11 10:59:27;;;;;;;1.60;1.50;;;2.70;99.90;;;;;;5008225;28;20038;-82
2024/01/11 11:01:58;;;;;;;1.60;1.50;;;2.90;99.90;;;;;;5005562;28;20067;-82
2024/01/11 11:04:25;;;;;;;1.80;1.70;;;2.90;99.90;;;;;;5008247;28;20527;-81
2024/01/11 11:06:57;;;;;;;1.50;1.40;;;3.10;99.90;;;;;;5008419;28;20044;-81
2024/01/11 11:09:24;;;;;;;1.60;1.50;;;3.00;99.90;;;;;;5007435;28;20046;-81
2024/01/11 11:11:53;;;;;;;1.50;1.40;;;2.90;99.90;;;;;;5007324;28;20201;-81
2024/01/11 11:14:20;;;;;;;1.42;1.40;;;2.90;99.90;;;;;;5004343;28;20104;-82
2024/01/11 11:16:46;;;;;;;1.50;1.40;;;3.10;99.90;;;;;;5004812;28;20561;-82
2024/01/11 11:19:13;;;;;;;1.40;1.40;;;3.00;99.90;;;;;;4989734;28;20078;-81
2024/01/11 11:21:43;;;;;;;1.52;1.42;;;3.10;99.90;;;;;;4990416;28;20054;-81
2024/01/11 11:24:10;;;;;;;1.60;1.50;;;3.30;99.90;;;;;;4991362;28;20068;-82
2024/01/11 11:26:36;;;;;;;1.52;1.42;;;3.20;99.90;;;;;;5007230;28;20103;-81
2024/01/11 11:29:04;;;;;;;1.50;1.40;;;3.20;99.90;;;;;;5007400;28;20045;-81
2024/01/11 11:31:43;;;;;;;1.50;1.40;;;3.20;99.90;;;;;;4989561;28;20046;-81
2024/01/11 11:34:13;;;;;;;1.55;1.45;;;3.20;99.90;;;;;;5008678;28;20065;-81
2024/01/11 11:36:42;;;;;;;1.60;1.50;;;3.30;99.90;;;;;;5007918;28;20135;-82
2024/01/11 11:39:11;;;;;;;1.50;1.40;;;3.40;99.90;;;;;;5009039;28;20057;-82
2024/01/11 11:41:38;;;;;;;1.50;1.40;;;3.40;99.90;;;;;;4992391;28;20128;-82
2024/01/11 11:44:05;;;;;;;1.50;1.40;;;3.40;99.90;;;;;;4992769;28;20045;-82
2024/01/11 11:46:33;;;;;;;1.50;1.40;;;3.50;99.90;;;;;;4994116;28;20056;-81
2024/01/11 11:48:59;;;;;;;1.52;1.42;;;3.50;99.90;;;;;;4990726;28;20067;-82
2024/01/11 11:51:26;;;;;;;1.48;1.40;;;3.60;99.90;;;;;;4993390;28;20053;-82
2024/01/11 11:53:52;;;;;;;1.60;1.50;;;3.60;99.90;;;;;;5011067;28;20056;-82
2024/01/11 11:56:20;;;;;;;1.38;1.35;;;3.70;99.90;;;;;;4992774;28;20562;-82
2024/01/11 11:58:46;;;;;;;1.50;1.40;;;3.70;99.90;;;;;;5010516;28;20041;-81
2024/01/11 12:01:19;;;;;;;1.48;1.40;;;3.70;99.90;;;;;;5010682;28;20411;-80
2024/01/11 12:03:49;;;;;;;1.35;1.35;;;3.80;99.90;;;;;;4991532;28;20129;-80
2024/01/11 12:06:19;;;;;;;1.30;1.30;;;3.90;99.90;;;;;;4991241;28;20050;-81
2024/01/11 12:08:47;;;;;;;1.33;1.33;;;3.80;99.90;;;;;;5007785;28;20412;-81
2024/01/11 12:11:14;;;;;;;1.20;1.20;;;3.90;99.90;;;;;;5009010;28;20045;-82
2024/01/11 12:13:40;;;;;;;1.25;1.25;;;3.80;99.90;;;;;;4991621;28;20526;-81
2024/01/11 12:16:06;;;;;;;1.20;1.20;;;3.90;99.90;;;;;;4992543;28;20451;-79
2024/01/11 12:18:32;;;;;;;1.20;1.20;;;4.00;99.90;;;;;;5009409;28;20050;-80
2024/01/11 12:20:58;;;;;;;1.20;1.20;;;3.90;99.90;;;;;;5011202;28;20056;-80
2024/01/11 12:23:23;;;;;;;1.20;1.20;;;4.00;99.90;;;;;;5010650;28;20046;-81
2024/01/11 12:25:49;;;;;;;1.25;1.25;;;4.00;99.90;;;;;;4990883;28;20042;-81
2024/01/11 12:28:16;;;;;;;1.20;1.20;;;4.00;99.90;;;;;;4991623;28;20373;-80
2024/01/11 12:30:42;;;;;;;1.30;1.30;;;4.10;99.90;;;;;;4991262;28;20096;-81
2024/01/11 12:33:08;;;;;;;1.20;1.20;;;3.90;99.90;;;;;;4991501;28;20057;-82
2024/01/11 12:35:34;;;;;;;1.20;1.20;;;4.00;99.90;;;;;;5010008;28;20104;-82
2024/01/11 12:38:01;;;;;;;1.20;1.20;;;4.00;99.90;;;;;;4992010;28;20614;-83
2024/01/11 12:40:27;;;;;;;1.30;1.30;;;3.90;99.90;;;;;;5009285;28;20072;-82
2024/01/11 12:42:53;;;;;;;12.20;11.63;;;3.90;99.90;;;;;;5008364;28;20037;-81
2024/01/11 12:45:22;;;;;;;1.20;1.20;;;3.90;99.90;;;;;;4993618;28;20518;-82
2024/01/11 12:47:48;;;;;;;1.20;1.20;;;3.80;99.90;;;;;;5005935;28;20129;-81